Angwin, CA (94508)

10:24 AM PDT on July 27, 2016 (GMT -0700)
AI6QO - Home | | Change Station

Elev 1798 ft 38.58 °N, 122.44 °W | Updated 9 minutes ago

Clear
Clear
87.4 °F
Feels Like 85 °F
N
0.0
Wind Variable Wind from NE

Today
High -- | Low -- °F
--% Chance of Precip.
Yesterday
High -- | Low -- °F
Precip. -- in
Pressure 29.87 in
Visibility 10.0 miles
Clouds Clear
Heat Index 85 °F
Dew Point 50 °F
Humidity 28%
Rainfall 0.00 in
Snow Depth Not available.
6:07 AM 8:24 PM
Last Quarter, 41% visible
METAR KSTS 271653Z 00000KT 10SM CLR 22/12 A2989 RMK AO2 SLP115 T02170117
Pressure 29.87 in
Visibility 10.0 miles
Clouds Clear
Heat Index 85 °F
Dew Point 50 °F
Humidity 28%
Rainfall 0.00 in
Snow Depth Not available.
6:07 AM 8:24 PM
Last Quarter, 41% visible
METAR KSTS 271653Z 00000KT 10SM CLR 22/12 A2989 RMK AO2 SLP115 T02170117

10-Day Weather Forecast

Almanac

Astronomy

Jul. 27, 2016 Rise Set
Actual Time
Civil Twilight
Nautical Twilight
Astronomical Twilight
Moon
Length of Visible Light
Length of Day
Tomorrow will be .
, % of the Moon is Illuminated

Today's Extremes

State Highs State Lows

Community

WunderPhotos

Upload Photos

1,927,887 photos uploaded!

WunderBlog® & News

Nearby

Air Quality

  Air Quality AQ Index Pollutant
Not available.

Snow Depth

Station Depth Elevation

Earthquake Activity

City Distance Mag. Time & Date
Minimum magnitude displayed is 2.5.

Coastal Water Temperatures

Place Temperature

Stations

Nearby Weather Stations

Station Location Temp. Windchill Dew Point Humidity Wind Precip. Elev Updated Type
                   

Watches & Warnings

There are currently no watches in effect.